Detall de PIREP

Printer-friendly versionPDF version

[2017/01/05 10:55:00]
Flight IATA:CT1004
Pilot Number:012
Company ICAO:CAT
Aircraft Type:BE20/A
PAX:6
Departing Airport: LIEA
Destination Airport: LDSP
Alternate Airport:LYBE
Online: VATSIM
Route:MINKA L5 VAPUP
Flight Level:F270
No Slew and time accel
No pause
Crash detect
Detect pilot in Cockpit between each 30 and 45 minutes
10:55 Zero fuel Weight: 9691 Lbs, Fuel Weight: 1743 Lbs
10:55 VATSIM:LIEA 051020Z 01006KT 330V040 9999 FEW022 14/00 Q1013
10:55 VATSIM:LDSP 051030Z 03020KT CAVOK 08/M04 Q1007 NOSIG
10:56 XMAS CHARTER
10:56 Parking Brakes off
11:02 Take-off
11:02 Take off Weight: 11416 Lbs
11:02 Wind: 005º @ 006 Knots Heading: 021º
11:02 POS N40º 37´ 41´´ E008º 17´ 19´´
11:02 Flaps:1 at 123 Knots
11:02 Gear Up: 129 Knots
11:02 Flaps:0 at 112 Knots
11:17 Wind:329º@068 Knots Heading: 042º Ground Speed: 161 Knots Altitude 21240 ft
11:21 TOC
11:21 Fuel Weight: 1498 Lb
11:32 Wind:337º@091 Knots Heading: 048º Ground Speed: 233 Knots Altitude 26925 ft
11:47 Wind:330º@086 Knots Heading: 048º Ground Speed: 242 Knots Altitude 26856 ft
12:02 Wind:325º@081 Knots Heading: 040º Ground Speed: 239 Knots Altitude 26840 ft
12:17 Wind:312º@054 Knots Heading: 044º Ground Speed: 255 Knots Altitude 26847 ft
12:28 TOD
12:28 Fuel Weight: 917 Lb
12:32 Wind:313º@031 Knots Heading: 050º Ground Speed: 298 Knots Altitude 21830 ft
12:44 Flaps:1 at 196 Knots
12:44 Flaps:2 at 156 Knots
12:44 Gear Down: 157 Knots
12:47 Wind:026º@023 Knots Heading: 042º Ground Speed: 109 Knots Altitude 1971 ft
12:50 TouchDown:Rate -424 ft/min Speed: 105 Knots
12:50 Flaps:1 at 37 Knots
12:50 VATSIM:LDSP 051230Z 04016G27KT 360V060 CAVOK 08/M06 Q1007 NOSIG
12:50 Land
12:50 Wind:026º@021 Knots
12:50 Heading: 050º
12:50 Flight Duration: 01:48
12:50 Landing Weight: 10444 Lbs
12:50 POS N43º 32´ 16´´ E016º 17´ 45´´
12:52 Parking brakes on
12:52 Block to Block Duration: 01:56
12:52 Final Fuel: 749 Lbls
12:52 Spent Fuel: 994 Lbls
12:52 Flight Length: 404 NM
12:52 TOD Land Length: 82 NM

Exportar CSV

Powered by Drupal - Modified by Danger4k